sensor_id;sensor_type;location;lat;lon;timestamp;pressure;altitude;pressure_sealevel;temperature;humidity
36932;BME280;22847;42.654;23.370;2023-09-18T00:02:24;95154.63;;;22.00;68.28
36932;BME280;22847;42.654;23.370;2023-09-18T00:04:50;95157.28;;;22.13;67.89
36932;BME280;22847;42.654;23.370;2023-09-18T00:07:15;95157.50;;;22.31;67.63
36932;BME280;22847;42.654;23.370;2023-09-18T00:09:41;95142.19;;;22.33;67.54
36932;BME280;22847;42.654;23.370;2023-09-18T00:12:06;95139.31;;;22.28;67.42
36932;BME280;22847;42.654;23.370;2023-09-18T00:14:32;95131.97;;;22.10;67.98
36932;BME280;22847;42.654;23.370;2023-09-18T00:16:57;95074.72;;;21.81;67.00
36932;BME280;22847;42.654;23.370;2023-09-18T00:19:23;95146.47;;;22.28;67.69
36932;BME280;22847;42.654;23.370;2023-09-18T00:21:50;95143.78;;;22.34;67.42
36932;BME280;22847;42.654;23.370;2023-09-18T00:24:17;95131.97;;;22.10;68.13
36932;BME280;22847;42.654;23.370;2023-09-18T00:26:42;95144.84;;;22.27;67.77
36932;BME280;22847;42.654;23.370;2023-09-18T00:29:07;95115.59;;;22.13;67.92
36932;BME280;22847;42.654;23.370;2023-09-18T00:31:33;95141.97;;;22.15;67.79
36932;BME280;22847;42.654;23.370;2023-09-18T00:33:58;95136.44;;;21.97;68.32
36932;BME280;22847;42.654;23.370;2023-09-18T00:36:24;95164.47;;;22.19;67.98
36932;BME280;22847;42.654;23.370;2023-09-18T00:38:49;95146.88;;;22.18;68.13
36932;BME280;22847;42.654;23.370;2023-09-18T00:41:14;95154.03;;;22.37;67.57
36932;BME280;22847;42.654;23.370;2023-09-18T00:43:40;95146.25;;;22.29;67.68
36932;BME280;22847;42.654;23.370;2023-09-18T00:46:05;95109.06;;;22.09;67.59
36932;BME280;22847;42.654;23.370;2023-09-18T00:48:31;95120.72;;;22.08;67.52
36932;BME280;22847;42.654;23.370;2023-09-18T00:50:57;95155.66;;;22.25;67.63
36932;BME280;22847;42.654;23.370;2023-09-18T00:53:23;95021.41;;;21.50;67.45
36932;BME280;22847;42.654;23.370;2023-09-18T00:55:53;95173.88;;;22.28;67.39
36932;BME280;22847;42.654;23.370;2023-09-18T00:58:19;95130.94;;;22.18;67.16
36932;BME280;22847;42.654;23.370;2023-09-18T01:00:45;95169.56;;;22.27;67.53
36932;BME280;22847;42.654;23.370;2023-09-18T01:03:10;95158.09;;;22.20;67.57
36932;BME280;22847;42.654;23.370;2023-09-18T01:05:36;95040.38;;;21.54;67.23
36932;BME280;22847;42.654;23.370;2023-09-18T01:08:01;95167.72;;;22.28;67.25
36932;BME280;22847;42.654;23.370;2023-09-18T01:10:46;95093.25;;;21.62;67.96
36932;BME280;22847;42.654;23.370;2023-09-18T01:13:14;95153.38;;;22.02;67.59
36932;BME280;22847;42.654;23.370;2023-09-18T01:15:50;95116.75;;;21.71;67.81
36932;BME280;22847;42.654;23.370;2023-09-18T01:18:17;95138.66;;;21.87;67.82
36932;BME280;22847;42.654;23.370;2023-09-18T01:20:44;95166.47;;;22.17;67.43
36932;BME280;22847;42.654;23.370;2023-09-18T01:23:09;95147.81;;;21.77;68.31
36932;BME280;22847;42.654;23.370;2023-09-18T01:25:37;95169.13;;;21.97;67.88
36932;BME280;22847;42.654;23.370;2023-09-18T01:28:02;95139.31;;;22.02;67.46
36932;BME280;22847;42.654;23.370;2023-09-18T01:30:28;95156.69;;;22.17;66.90
36932;BME280;22847;42.654;23.370;2023-09-18T01:32:54;95067.94;;;21.66;66.56
36932;BME280;22847;42.654;23.370;2023-09-18T01:35:21;95130.72;;;22.00;66.66
36932;BME280;22847;42.654;23.370;2023-09-18T01:37:48;95134.81;;;21.96;67.15
36932;BME280;22847;42.654;23.370;2023-09-18T01:40:15;95154.16;;;21.90;67.35
36932;BME280;22847;42.654;23.370;2023-09-18T01:42:41;95125.56;;;21.78;67.48
36932;BME280;22847;42.654;23.370;2023-09-18T01:45:07;95182.22;;;21.45;68.77
36932;BME280;22847;42.654;23.370;2023-09-18T01:47:33;95150.22;;;21.05;70.12
36932;BME280;22847;42.654;23.370;2023-09-18T01:50:02;95158.25;;;20.84;71.43
36932;BME280;22847;42.654;23.370;2023-09-18T01:52:30;95016.47;;;19.70;72.96
36932;BME280;22847;42.654;23.370;2023-09-18T01:54:56;94932.34;;;18.89;74.58
36932;BME280;22847;42.654;23.370;2023-09-18T01:57:21;95150.59;;;19.91;76.24
36932;BME280;22847;42.654;23.370;2023-09-18T01:59:47;95159.88;;;19.80;77.21
36932;BME280;22847;42.654;23.370;2023-09-18T02:02:12;95182.91;;;19.44;79.43
36932;BME280;22847;42.654;23.370;2023-09-18T02:04:38;95174.34;;;19.27;80.86
36932;BME280;22847;42.654;23.370;2023-09-18T02:07:03;95180.63;;;19.26;81.13
36932;BME280;22847;42.654;23.370;2023-09-18T02:09:29;95140.16;;;18.96;82.21
36932;BME280;22847;42.654;23.370;2023-09-18T02:11:54;95173.13;;;19.30;81.28
36932;BME280;22847;42.654;23.370;2023-09-18T02:14:19;95172.69;;;19.11;82.16
36932;BME280;22847;42.654;23.370;2023-09-18T02:16:45;95029.56;;;18.28;82.09
36932;BME280;22847;42.654;23.370;2023-09-18T02:19:12;95177.53;;;19.08;82.31
36932;BME280;22847;42.654;23.370;2023-09-18T02:21:39;95175.19;;;18.98;83.09
36932;BME280;22847;42.654;23.370;2023-09-18T02:24:05;95156.94;;;19.03;82.62
36932;BME280;22847;42.654;23.370;2023-09-18T02:26:30;95056.50;;;18.53;81.36
36932;BME280;22847;42.654;23.370;2023-09-18T02:28:58;95147.47;;;19.09;81.32
36932;BME280;22847;42.654;23.370;2023-09-18T02:31:24;95187.28;;;19.22;81.44
36932;BME280;22847;42.654;23.370;2023-09-18T02:33:49;95179.38;;;19.07;83.08
36932;BME280;22847;42.654;23.370;2023-09-18T02:36:15;95188.13;;;19.08;82.35
36932;BME280;22847;42.654;23.370;2023-09-18T02:38:41;95175.16;;;19.13;82.21
36932;BME280;22847;42.654;23.370;2023-09-18T02:41:06;95039.19;;;18.21;82.91
36932;BME280;22847;42.654;23.370;2023-09-18T02:43:32;95108.19;;;18.91;83.02
36932;BME280;22847;42.654;23.370;2023-09-18T02:45:57;95173.13;;;19.30;81.71
36932;BME280;22847;42.654;23.370;2023-09-18T02:48:23;95116.81;;;19.14;81.83
36932;BME280;22847;42.654;23.370;2023-09-18T02:50:49;95179.66;;;19.84;79.26
36932;BME280;22847;42.654;23.370;2023-09-18T02:53:19;95161.13;;;19.84;76.95
36932;BME280;22847;42.654;23.370;2023-09-18T02:55:46;95045.63;;;18.77;78.29
36932;BME280;22847;42.654;23.370;2023-09-18T02:58:12;95176.75;;;19.58;78.98
36932;BME280;22847;42.654;23.370;2023-09-18T03:00:49;95203.31;;;19.21;80.72
36932;BME280;22847;42.654;23.370;2023-09-18T03:03:16;95182.63;;;19.09;81.40
36932;BME280;22847;42.654;23.370;2023-09-18T03:05:43;95170.00;;;18.76;82.82
36932;BME280;22847;42.654;23.370;2023-09-18T03:08:09;95173.53;;;18.97;82.36
36932;BME280;22847;42.654;23.370;2023-09-18T03:10:38;95206.53;;;18.72;83.84
36932;BME280;22847;42.654;23.370;2023-09-18T03:13:05;95043.97;;;17.88;83.74
36932;BME280;22847;42.654;23.370;2023-09-18T03:15:31;95181.56;;;18.89;83.19
36932;BME280;22847;42.654;23.370;2023-09-18T03:17:57;94984.31;;;17.50;83.91
36932;BME280;22847;42.654;23.370;2023-09-18T03:20:24;95055.97;;;17.76;85.10
36932;BME280;22847;42.654;23.370;2023-09-18T03:22:55;95180.97;;;18.50;85.54
36932;BME280;22847;42.654;23.370;2023-09-18T03:25:20;95199.94;;;18.53;85.54
36932;BME280;22847;42.654;23.370;2023-09-18T03:27:47;95164.78;;;18.53;85.03
36932;BME280;22847;42.654;23.370;2023-09-18T03:30:12;95148.06;;;18.38;85.93
36932;BME280;22847;42.654;23.370;2023-09-18T03:32:41;95018.47;;;17.66;84.97
36932;BME280;22847;42.654;23.370;2023-09-18T03:35:06;95173.22;;;18.48;85.73
36932;BME280;22847;42.654;23.370;2023-09-18T03:37:34;95137.88;;;17.97;87.17
36932;BME280;22847;42.654;23.370;2023-09-18T03:39:59;95037.22;;;17.48;87.14
36932;BME280;22847;42.654;23.370;2023-09-18T03:42:25;95168.44;;;18.29;87.38
36932;BME280;22847;42.654;23.370;2023-09-18T03:44:51;95175.84;;;18.34;87.95
36932;BME280;22847;42.654;23.370;2023-09-18T03:47:16;95157.81;;;18.37;87.00
36932;BME280;22847;42.654;23.370;2023-09-18T03:49:41;95012.78;;;17.54;86.51
36932;BME280;22847;42.654;23.370;2023-09-18T03:52:07;95171.91;;;18.29;87.06
36932;BME280;22847;42.654;23.370;2023-09-18T03:54:32;95141.22;;;18.28;87.08
36932;BME280;22847;42.654;23.370;2023-09-18T03:56:58;95145.59;;;18.21;87.32
36932;BME280;22847;42.654;23.370;2023-09-18T03:59:23;95036.06;;;17.51;87.79
36932;BME280;22847;42.654;23.370;2023-09-18T04:01:48;95180.53;;;18.09;89.12
36932;BME280;22847;42.654;23.370;2023-09-18T04:04:15;94994.09;;;17.04;88.96
36932;BME280;22847;42.654;23.370;2023-09-18T04:06:42;95187.56;;;17.71;91.20
36932;BME280;22847;42.654;23.370;2023-09-18T04:09:08;95013.91;;;16.69;92.34
36932;BME280;22847;42.654;23.370;2023-09-18T04:11:33;95179.13;;;17.98;93.55
36932;BME280;22847;42.654;23.370;2023-09-18T04:14:00;95181.38;;;17.87;91.22
36932;BME280;22847;42.654;23.370;2023-09-18T04:16:26;95161.63;;;17.97;90.73
36932;BME280;22847;42.654;23.370;2023-09-18T04:18:53;95183.19;;;17.86;91.48
36932;BME280;22847;42.654;23.370;2023-09-18T04:21:19;95130.50;;;17.24;93.88
36932;BME280;22847;42.654;23.370;2023-09-18T04:23:44;95015.41;;;16.63;93.71
36932;BME280;22847;42.654;23.370;2023-09-18T04:26:10;95181.16;;;17.65;92.89
36932;BME280;22847;42.654;23.370;2023-09-18T04:28:36;95186.69;;;17.48;93.86
36932;BME280;22847;42.654;23.370;2023-09-18T04:31:01;95177.06;;;17.32;95.18
36932;BME280;22847;42.654;23.370;2023-09-18T04:33:26;95171.03;;;17.23;96.22
36932;BME280;22847;42.654;23.370;2023-09-18T04:35:54;95026.19;;;16.37;95.65
36932;BME280;22847;42.654;23.370;2023-09-18T04:38:19;95169.22;;;17.24;95.99
36932;BME280;22847;42.654;23.370;2023-09-18T04:40:45;95157.66;;;17.25;95.68
36932;BME280;22847;42.654;23.370;2023-09-18T04:43:11;95105.81;;;16.86;96.44
36932;BME280;22847;42.654;23.370;2023-09-18T04:45:36;95165.94;;;17.45;95.29
36932;BME280;22847;42.654;23.370;2023-09-18T04:48:02;95173.16;;;17.59;94.73
36932;BME280;22847;42.654;23.370;2023-09-18T04:50:28;95177.16;;;17.47;94.36
36932;BME280;22847;42.654;23.370;2023-09-18T04:52:53;95138.41;;;17.47;92.89
36932;BME280;22847;42.654;23.370;2023-09-18T04:55:21;95191.97;;;18.39;89.85
36932;BME280;22847;42.654;23.370;2023-09-18T04:57:47;95135.97;;;19.52;82.65
36932;BME280;22847;42.654;23.370;2023-09-18T05:00:12;95181.16;;;20.64;78.38
36932;BME280;22847;42.654;23.370;2023-09-18T05:02:39;95134.03;;;21.34;72.81
36932;BME280;22847;42.654;23.370;2023-09-18T05:05:05;95137.06;;;22.25;69.51
36932;BME280;22847;42.654;23.370;2023-09-18T05:07:30;95028.69;;;22.53;64.71
36932;BME280;22847;42.654;23.370;2023-09-18T05:09:58;95165.97;;;24.08;61.74
36932;BME280;22847;42.654;23.370;2023-09-18T05:12:23;95171.34;;;24.57;60.67
36932;BME280;22847;42.654;23.370;2023-09-18T05:14:48;95045.66;;;24.72;56.97
36932;BME280;22847;42.654;23.370;2023-09-18T05:17:16;95169.94;;;25.89;55.60
36932;BME280;22847;42.654;23.370;2023-09-18T05:19:42;95172.66;;;26.12;54.22
36932;BME280;22847;42.654;23.370;2023-09-18T05:22:08;95112.97;;;24.24;58.04
36932;BME280;22847;42.654;23.370;2023-09-18T05:24:38;95174.22;;;24.56;58.67
36932;BME280;22847;42.654;23.370;2023-09-18T05:27:04;95068.66;;;23.74;58.66
36932;BME280;22847;42.654;23.370;2023-09-18T05:29:31;95179.47;;;23.75;61.58
36932;BME280;22847;42.654;23.370;2023-09-18T05:31:57;95149.75;;;24.40;59.12
36932;BME280;22847;42.654;23.370;2023-09-18T05:34:22;95154.63;;;25.29;56.57
36932;BME280;22847;42.654;23.370;2023-09-18T05:36:48;95089.91;;;24.98;56.09
36932;BME280;22847;42.654;23.370;2023-09-18T05:39:14;95041.94;;;25.09;55.08
36932;BME280;22847;42.654;23.370;2023-09-18T05:41:39;95055.63;;;24.15;56.52
36932;BME280;22847;42.654;23.370;2023-09-18T05:44:06;95167.88;;;25.18;56.30
36932;BME280;22847;42.654;23.370;2023-09-18T05:46:35;95061.50;;;24.49;56.07
36932;BME280;22847;42.654;23.370;2023-09-18T05:49:02;95199.00;;;24.87;57.68
36932;BME280;22847;42.654;23.370;2023-09-18T05:51:27;95186.94;;;25.03;57.15
36932;BME280;22847;42.654;23.370;2023-09-18T05:53:53;95178.66;;;25.29;57.17
36932;BME280;22847;42.654;23.370;2023-09-18T05:56:18;95173.03;;;23.95;60.40
36932;BME280;22847;42.654;23.370;2023-09-18T05:58:44;95156.06;;;24.15;59.64
36932;BME280;22847;42.654;23.370;2023-09-18T06:01:09;95091.75;;;23.48;60.87
36932;BME280;22847;42.654;23.370;2023-09-18T06:03:35;95193.00;;;24.05;60.08
36932;BME280;22847;42.654;23.370;2023-09-18T06:06:05;95184.59;;;23.76;61.62
36932;BME280;22847;42.654;23.370;2023-09-18T06:08:30;95084.41;;;23.37;60.96
36932;BME280;22847;42.654;23.370;2023-09-18T06:10:57;95166.88;;;23.95;61.72
36932;BME280;22847;42.654;23.370;2023-09-18T06:13:25;95183.47;;;24.28;60.94
36932;BME280;22847;42.654;23.370;2023-09-18T06:15:52;95159.09;;;24.50;60.58
36932;BME280;22847;42.654;23.370;2023-09-18T06:18:22;95157.09;;;24.45;58.93
36932;BME280;22847;42.654;23.370;2023-09-18T06:20:48;95186.63;;;24.43;60.04
36932;BME280;22847;42.654;23.370;2023-09-18T06:23:14;95170.28;;;23.71;60.03
36932;BME280;22847;42.654;23.370;2023-09-18T06:25:40;95181.50;;;24.17;60.71
36932;BME280;22847;42.654;23.370;2023-09-18T06:28:05;95192.13;;;24.49;59.21
36932;BME280;22847;42.654;23.370;2023-09-18T06:30:32;95191.50;;;23.84;61.23
36932;BME280;22847;42.654;23.370;2023-09-18T06:33:01;95191.78;;;24.07;60.34
36932;BME280;22847;42.654;23.370;2023-09-18T06:35:26;95165.22;;;23.94;59.99
36932;BME280;22847;42.654;23.370;2023-09-18T06:37:51;95196.69;;;24.17;60.21
36932;BME280;22847;42.654;23.370;2023-09-18T06:40:19;95198.59;;;24.59;59.56
36932;BME280;22847;42.654;23.370;2023-09-18T06:42:45;95186.94;;;24.29;58.71
36932;BME280;22847;42.654;23.370;2023-09-18T06:45:10;95190.31;;;24.11;59.57
36932;BME280;22847;42.654;23.370;2023-09-18T06:47:36;95191.53;;;24.47;58.57
36932;BME280;22847;42.654;23.370;2023-09-18T06:50:01;95190.22;;;24.56;58.31
36932;BME280;22847;42.654;23.370;2023-09-18T06:52:29;95062.53;;;24.23;58.32
36932;BME280;22847;42.654;23.370;2023-09-18T06:54:54;95194.75;;;25.59;55.89
36932;BME280;22847;42.654;23.370;2023-09-18T06:57:20;95170.63;;;25.66;54.72
36932;BME280;22847;42.654;23.370;2023-09-18T06:59:46;95201.50;;;25.80;54.36
36932;BME280;22847;42.654;23.370;2023-09-18T07:02:12;95120.63;;;25.55;54.38
36932;BME280;22847;42.654;23.370;2023-09-18T07:04:40;95171.78;;;25.88;54.21
36932;BME280;22847;42.654;23.370;2023-09-18T07:07:10;95196.19;;;26.22;54.26
36932;BME280;22847;42.654;23.370;2023-09-18T07:09:36;95182.44;;;26.59;53.88
36932;BME280;22847;42.654;23.370;2023-09-18T07:12:02;95191.28;;;26.72;51.61
36932;BME280;22847;42.654;23.370;2023-09-18T07:14:27;95164.28;;;26.38;52.19
36932;BME280;22847;42.654;23.370;2023-09-18T07:16:53;95078.63;;;24.96;53.53
36932;BME280;22847;42.654;23.370;2023-09-18T07:19:18;95195.88;;;25.70;53.89
36932;BME280;22847;42.654;23.370;2023-09-18T07:21:44;95191.91;;;25.72;53.32
36932;BME280;22847;42.654;23.370;2023-09-18T07:24:09;95166.75;;;25.80;53.20
36932;BME280;22847;42.654;23.370;2023-09-18T07:26:35;95188.03;;;25.57;54.12
36932;BME280;22847;42.654;23.370;2023-09-18T07:29:00;95164.84;;;25.51;53.83
36932;BME280;22847;42.654;23.370;2023-09-18T07:31:26;95179.59;;;25.53;53.59
36932;BME280;22847;42.654;23.370;2023-09-18T07:33:52;95187.91;;;25.45;54.76
36932;BME280;22847;42.654;23.370;2023-09-18T07:36:18;95197.94;;;25.68;54.93
36932;BME280;22847;42.654;23.370;2023-09-18T07:38:45;95217.06;;;26.13;54.09
36932;BME280;22847;42.654;23.370;2023-09-18T07:41:10;94973.88;;;24.52;52.90
36932;BME280;22847;42.654;23.370;2023-09-18T07:43:35;95169.66;;;25.06;54.41
36932;BME280;22847;42.654;23.370;2023-09-18T07:46:01;95148.03;;;25.14;55.16
36932;BME280;22847;42.654;23.370;2023-09-18T07:48:27;95190.06;;;25.18;55.20
36932;BME280;22847;42.654;23.370;2023-09-18T07:50:52;95095.66;;;24.58;57.74
36932;BME280;22847;42.654;23.370;2023-09-18T07:53:19;95067.13;;;24.16;56.11
36932;BME280;22847;42.654;23.370;2023-09-18T07:55:45;95064.72;;;24.51;55.63
36932;BME280;22847;42.654;23.370;2023-09-18T07:58:10;95114.81;;;25.10;54.38
36932;BME280;22847;42.654;23.370;2023-09-18T08:00:36;95184.91;;;25.90;53.52
36932;BME280;22847;42.654;23.370;2023-09-18T08:03:02;95188.56;;;25.77;53.42
36932;BME280;22847;42.654;23.370;2023-09-18T08:05:27;95159.44;;;25.87;53.80
36932;BME280;22847;42.654;23.370;2023-09-18T08:07:54;95182.22;;;26.19;53.31
36932;BME280;22847;42.654;23.370;2023-09-18T08:10:22;95064.34;;;25.68;52.14
36932;BME280;22847;42.654;23.370;2023-09-18T08:12:48;95193.00;;;26.13;52.03
36932;BME280;22847;42.654;23.370;2023-09-18T08:15:15;95140.28;;;25.90;52.21
36932;BME280;22847;42.654;23.370;2023-09-18T08:17:40;95170.28;;;26.22;52.12
36932;BME280;22847;42.654;23.370;2023-09-18T08:20:07;95163.47;;;26.38;51.27
36932;BME280;22847;42.654;23.370;2023-09-18T08:22:37;95198.03;;;26.21;52.27
36932;BME280;22847;42.654;23.370;2023-09-18T08:25:04;95163.38;;;26.14;51.77
36932;BME280;22847;42.654;23.370;2023-09-18T08:27:30;95161.47;;;26.33;53.01
36932;BME280;22847;42.654;23.370;2023-09-18T08:29:55;95077.78;;;25.91;52.31
36932;BME280;22847;42.654;23.370;2023-09-18T08:32:21;95169.75;;;25.54;53.64
36932;BME280;22847;42.654;23.370;2023-09-18T08:34:46;95152.78;;;25.30;55.23
36932;BME280;22847;42.654;23.370;2023-09-18T08:37:12;95164.03;;;25.50;54.96
36932;BME280;22847;42.654;23.370;2023-09-18T08:39:38;95181.88;;;26.16;53.58
36932;BME280;22847;42.654;23.370;2023-09-18T08:42:04;95152.28;;;26.41;51.60
36932;BME280;22847;42.654;23.370;2023-09-18T08:44:31;95172.09;;;26.51;51.65
36932;BME280;22847;42.654;23.370;2023-09-18T08:46:57;95126.75;;;26.56;50.42
36932;BME280;22847;42.654;23.370;2023-09-18T08:49:23;95153.41;;;26.86;52.86
36932;BME280;22847;42.654;23.370;2023-09-18T08:51:50;95127.63;;;26.39;50.03
36932;BME280;22847;42.654;23.370;2023-09-18T08:54:16;95007.72;;;25.48;51.09
36932;BME280;22847;42.654;23.370;2023-09-18T08:56:42;95132.75;;;26.40;49.95
36932;BME280;22847;42.654;23.370;2023-09-18T08:59:07;95143.47;;;26.52;49.25
36932;BME280;22847;42.654;23.370;2023-09-18T09:01:32;94997.84;;;25.78;51.46
36932;BME280;22847;42.654;23.370;2023-09-18T09:03:58;95127.66;;;26.50;49.31
36932;BME280;22847;42.654;23.370;2023-09-18T09:06:25;95160.91;;;26.43;49.75
36932;BME280;22847;42.654;23.370;2023-09-18T09:08:51;95099.03;;;25.86;49.26
36932;BME280;22847;42.654;23.370;2023-09-18T09:11:17;95120.06;;;26.24;51.11
36932;BME280;22847;42.654;23.370;2023-09-18T09:13:42;95074.13;;;26.15;49.60
36932;BME280;22847;42.654;23.370;2023-09-18T09:16:10;95151.72;;;26.09;49.45
36932;BME280;22847;42.654;23.370;2023-09-18T09:18:50;95144.72;;;25.96;52.10
36932;BME280;22847;42.654;23.370;2023-09-18T09:21:15;95096.88;;;26.06;51.84
36932;BME280;22847;42.654;23.370;2023-09-18T09:23:51;95118.22;;;26.36;52.26
36932;BME280;22847;42.654;23.370;2023-09-18T09:26:19;95109.03;;;26.32;48.65
36932;BME280;22847;42.654;23.370;2023-09-18T09:28:45;94988.56;;;25.51;49.30
36932;BME280;22847;42.654;23.370;2023-09-18T09:31:11;95153.19;;;26.23;49.97
36932;BME280;22847;42.654;23.370;2023-09-18T09:33:37;94990.38;;;25.57;49.89
36932;BME280;22847;42.654;23.370;2023-09-18T09:36:05;95127.53;;;26.45;48.71
36932;BME280;22847;42.654;23.370;2023-09-18T09:38:32;95072.28;;;26.39;49.04
36932;BME280;22847;42.654;23.370;2023-09-18T09:40:59;94995.41;;;25.88;48.13
36932;BME280;22847;42.654;23.370;2023-09-18T09:43:26;95125.78;;;26.28;48.29
36932;BME280;22847;42.654;23.370;2023-09-18T09:45:58;95132.03;;;25.80;50.06
36932;BME280;22847;42.654;23.370;2023-09-18T09:48:24;95120.31;;;25.45;48.97
36932;BME280;22847;42.654;23.370;2023-09-18T09:50:51;95126.59;;;25.39;52.46
36932;BME280;22847;42.654;23.370;2023-09-18T09:53:17;95131.41;;;25.48;49.20
36932;BME280;22847;42.654;23.370;2023-09-18T09:55:43;95083.88;;;25.39;51.54
36932;BME280;22847;42.654;23.370;2023-09-18T09:58:10;95110.53;;;25.87;51.53
36932;BME280;22847;42.654;23.370;2023-09-18T10:00:45;95109.81;;;26.21;48.71
36932;BME280;22847;42.654;23.370;2023-09-18T10:03:13;95035.72;;;25.87;50.23
36932;BME280;22847;42.654;23.370;2023-09-18T10:05:41;95106.75;;;26.17;50.55
36932;BME280;22847;42.654;23.370;2023-09-18T10:08:12;95116.09;;;25.85;49.00
36932;BME280;22847;42.654;23.370;2023-09-18T10:10:43;95066.63;;;25.94;48.81
36932;BME280;22847;42.654;23.370;2023-09-18T10:13:14;95105.31;;;26.45;47.98
36932;BME280;22847;42.654;23.370;2023-09-18T10:15:42;95090.44;;;26.60;46.67
36932;BME280;22847;42.654;23.370;2023-09-18T10:18:26;95079.97;;;26.59;47.04
36932;BME280;22847;42.654;23.370;2023-09-18T10:20:57;95076.38;;;26.65;46.33
36932;BME280;22847;42.654;23.370;2023-09-18T10:23:38;95085.66;;;26.86;46.74
36932;BME280;22847;42.654;23.370;2023-09-18T10:26:09;95077.97;;;26.66;46.71
36932;BME280;22847;42.654;23.370;2023-09-18T10:28:43;95094.97;;;26.25;45.65
36932;BME280;22847;42.654;23.370;2023-09-18T10:31:09;94965.13;;;25.53;45.85
36932;BME280;22847;42.654;23.370;2023-09-18T10:33:37;95062.94;;;26.07;46.45
36932;BME280;22847;42.654;23.370;2023-09-18T10:36:04;94948.16;;;25.47;46.99
36932;BME280;22847;42.654;23.370;2023-09-18T10:38:31;95047.06;;;26.47;47.42
36932;BME280;22847;42.654;23.370;2023-09-18T10:40:58;94948.34;;;25.64;46.08
36932;BME280;22847;42.654;23.370;2023-09-18T10:43:24;95050.28;;;26.14;49.17
36932;BME280;22847;42.654;23.370;2023-09-18T10:45:50;95081.94;;;26.40;48.40
36932;BME280;22847;42.654;23.370;2023-09-18T10:48:18;94941.03;;;25.83;47.79
36932;BME280;22847;42.654;23.370;2023-09-18T10:50:44;95070.16;;;26.76;45.63
36932;BME280;22847;42.654;23.370;2023-09-18T10:53:11;94933.63;;;25.85;47.26
36932;BME280;22847;42.654;23.370;2023-09-18T10:55:37;95054.22;;;26.00;46.19
36932;BME280;22847;42.654;23.370;2023-09-18T10:58:03;94936.53;;;25.30;46.81
36932;BME280;22847;42.654;23.370;2023-09-18T11:00:31;95049.19;;;25.50;48.45
36932;BME280;22847;42.654;23.370;2023-09-18T11:03:17;95054.34;;;25.63;48.19
36932;BME280;22847;42.654;23.370;2023-09-18T11:05:44;94926.50;;;25.14;48.16
36932;BME280;22847;42.654;23.370;2023-09-18T11:08:28;95048.59;;;25.90;46.75
36932;BME280;22847;42.654;23.370;2023-09-18T11:11:06;95042.81;;;25.93;47.21
36932;BME280;22847;42.654;23.370;2023-09-18T11:13:37;95024.34;;;25.80;46.83
36932;BME280;22847;42.654;23.370;2023-09-18T11:18:52;95027.75;;;26.22;46.96
36932;BME280;22847;42.654;23.370;2023-09-18T11:21:18;95035.19;;;26.31;46.87
36932;BME280;22847;42.654;23.370;2023-09-18T11:23:43;94930.09;;;25.19;46.30
36932;BME280;22847;42.654;23.370;2023-09-18T11:26:10;95024.09;;;25.81;46.00
36932;BME280;22847;42.654;23.370;2023-09-18T11:28:37;94922.31;;;25.18;45.58
36932;BME280;22847;42.654;23.370;2023-09-18T11:31:03;95011.22;;;26.01;47.02
36932;BME280;22847;42.654;23.370;2023-09-18T11:33:39;94898.47;;;25.35;45.11
36932;BME280;22847;42.654;23.370;2023-09-18T11:36:11;95016.75;;;25.76;47.92
36932;BME280;22847;42.654;23.370;2023-09-18T11:38:53;94979.22;;;25.60;46.03
36932;BME280;22847;42.654;23.370;2023-09-18T11:41:28;95002.72;;;25.81;45.26
36932;BME280;22847;42.654;23.370;2023-09-18T11:46:47;95017.28;;;26.20;46.70
36932;BME280;22847;42.654;23.370;2023-09-18T11:49:14;94887.69;;;25.53;45.70
36932;BME280;22847;42.654;23.370;2023-09-18T11:51:41;94982.66;;;26.37;44.50
36932;BME280;22847;42.654;23.370;2023-09-18T11:54:07;94993.13;;;26.27;44.28
36932;BME280;22847;42.654;23.370;2023-09-18T11:56:35;95000.53;;;26.59;43.93
36932;BME280;22847;42.654;23.370;2023-09-18T11:59:32;94993.44;;;26.53;44.54
36932;BME280;22847;42.654;23.370;2023-09-18T12:01:58;94970.44;;;25.83;45.37
36932;BME280;22847;42.654;23.370;2023-09-18T12:04:31;94996.53;;;25.69;46.06
36932;BME280;22847;42.654;23.370;2023-09-18T12:06:58;94858.59;;;25.10;46.67
36932;BME280;22847;42.654;23.370;2023-09-18T12:09:27;94982.75;;;25.95;46.99
36932;BME280;22847;42.654;23.370;2023-09-18T12:11:52;94985.19;;;26.08;45.44
36932;BME280;22847;42.654;23.370;2023-09-18T12:14:20;94966.34;;;26.03;46.08
36932;BME280;22847;42.654;23.370;2023-09-18T12:16:45;94995.28;;;26.53;46.58
36932;BME280;22847;42.654;23.370;2023-09-18T12:19:20;94967.75;;;25.83;47.39
36932;BME280;22847;42.654;23.370;2023-09-18T12:21:46;95005.06;;;25.89;47.40
36932;BME280;22847;42.654;23.370;2023-09-18T12:24:20;94957.53;;;25.80;47.67
36932;BME280;22847;42.654;23.370;2023-09-18T12:26:45;94936.72;;;25.58;47.90
36932;BME280;22847;42.654;23.370;2023-09-18T12:29:11;94878.22;;;25.15;48.30
36932;BME280;22847;42.654;23.370;2023-09-18T12:31:37;94962.72;;;25.63;48.96
36932;BME280;22847;42.654;23.370;2023-09-18T12:34:02;94816.22;;;24.60;49.31
36932;BME280;22847;42.654;23.370;2023-09-18T12:36:29;94981.69;;;25.73;49.07
36932;BME280;22847;42.654;23.370;2023-09-18T12:38:56;94867.44;;;24.51;49.09
36932;BME280;22847;42.654;23.370;2023-09-18T12:41:31;94852.53;;;24.31;49.85
36932;BME280;22847;42.654;23.370;2023-09-18T12:43:57;94972.97;;;25.36;49.41
36932;BME280;22847;42.654;23.370;2023-09-18T12:46:23;94845.00;;;24.88;48.84
36932;BME280;22847;42.654;23.370;2023-09-18T12:48:48;94877.56;;;25.31;49.13
36932;BME280;22847;42.654;23.370;2023-09-18T12:51:14;94992.84;;;26.05;48.52
36932;BME280;22847;42.654;23.370;2023-09-18T12:53:41;94962.78;;;25.98;46.85
36932;BME280;22847;42.654;23.370;2023-09-18T12:58:32;94819.63;;;25.20;47.83